createdAt,value
2017-07-02T00:00:23.916Z,61.20
2017-07-02T00:02:50.338Z,60.70
2017-07-02T00:05:16.773Z,60.20
2017-07-02T00:07:43.280Z,60.30
2017-07-02T00:10:09.598Z,60.30
2017-07-02T00:12:36.006Z,61.60
2017-07-02T00:15:02.322Z,60.60
2017-07-02T00:17:29.390Z,60.90
2017-07-02T00:19:55.710Z,60.90
2017-07-02T00:22:22.043Z,61.40
2017-07-02T00:24:48.380Z,60.50
2017-07-02T00:27:14.750Z,61.60
2017-07-02T00:29:41.080Z,61.70
2017-07-02T00:32:07.447Z,61.80
2017-07-02T00:34:33.824Z,61.70
2017-07-02T00:37:00.180Z,61.60
2017-07-02T00:39:26.530Z,61.90
2017-07-02T00:41:53.635Z,62.10
2017-07-02T00:44:20.037Z,61.50
2017-07-02T00:46:46.419Z,61.60
2017-07-02T00:49:12.742Z,61.30
2017-07-02T00:51:39.070Z,61.30
2017-07-02T00:54:05.412Z,61.60
2017-07-02T00:56:31.907Z,62.40
2017-07-02T00:58:58.219Z,62.90
2017-07-02T01:01:24.540Z,62.80
2017-07-02T01:03:51.618Z,63.50
2017-07-02T01:06:18.012Z,63.50
2017-07-02T01:08:45.096Z,64.10
2017-07-02T01:11:11.408Z,64.10
2017-07-02T01:13:37.729Z,63.30
2017-07-02T01:16:04.060Z,63.60
2017-07-02T01:18:30.404Z,63.00
2017-07-02T01:20:56.756Z,62.90
2017-07-02T01:23:23.168Z,62.00
2017-07-02T01:25:49.529Z,62.30
2017-07-02T01:28:15.875Z,62.30
2017-07-02T01:30:42.239Z,62.90
2017-07-02T01:33:08.605Z,62.90
2017-07-02T01:35:34.962Z,62.40
2017-07-02T01:38:01.271Z,63.50
2017-07-02T01:40:27.613Z,62.80
2017-07-02T01:42:53.955Z,63.00
2017-07-02T01:45:20.367Z,63.30
2017-07-02T01:47:46.731Z,62.80
2017-07-02T01:50:13.095Z,62.50
2017-07-02T01:52:39.435Z,63.20
2017-07-02T01:55:06.538Z,62.60
2017-07-02T01:57:32.981Z,62.80
2017-07-02T01:59:59.340Z,62.90
2017-07-02T02:02:38.227Z,62.20
2017-07-02T02:05:04.571Z,62.70
2017-07-02T02:07:30.936Z,62.40
2017-07-02T02:09:58.021Z,62.10
2017-07-02T02:12:24.384Z,62.10
2017-07-02T02:14:50.717Z,62.10
2017-07-02T02:17:17.058Z,62.10
2017-07-02T02:19:43.408Z,62.20
2017-07-02T02:22:09.761Z,62.50
2017-07-02T02:24:36.120Z,62.50
2017-07-02T02:27:02.449Z,63.10
2017-07-02T02:29:28.795Z,62.90
2017-07-02T02:31:55.245Z,62.50
2017-07-02T02:34:21.588Z,63.10
2017-07-02T02:36:47.919Z,63.00
2017-07-02T02:39:15.001Z,63.30
2017-07-02T02:41:41.337Z,63.10
2017-07-02T02:44:07.663Z,63.20
2017-07-02T02:46:33.984Z,63.20
2017-07-02T02:49:00.303Z,63.20
2017-07-02T02:51:26.633Z,63.60
2017-07-02T02:53:52.987Z,64.00
2017-07-02T02:56:19.328Z,64.20
2017-07-02T02:58:45.653Z,64.00
2017-07-02T03:01:11.984Z,64.10
2017-07-02T03:03:38.354Z,64.20
2017-07-02T03:06:05.445Z,64.20
2017-07-02T03:08:31.804Z,64.10
2017-07-02T03:10:58.107Z,64.20
2017-07-02T03:13:24.432Z,63.80
2017-07-02T03:15:50.764Z,64.10
2017-07-02T03:18:17.079Z,64.50
2017-07-02T03:20:43.421Z,64.80
2017-07-02T03:23:09.756Z,64.50
2017-07-02T03:25:36.120Z,64.60
2017-07-02T03:28:03.407Z,64.20
2017-07-02T03:30:30.020Z,63.80
2017-07-02T03:32:56.625Z,63.30
2017-07-02T03:35:23.211Z,62.80
2017-07-02T03:37:49.784Z,63.20
2017-07-02T03:40:16.386Z,63.10
2017-07-02T03:42:42.967Z,63.40
2017-07-02T03:45:09.532Z,63.50
2017-07-02T03:47:36.088Z,63.60
2017-07-02T03:50:09.325Z,63.30
2017-07-02T03:52:35.653Z,63.50
2017-07-02T03:55:01.977Z,63.50
2017-07-02T03:57:28.300Z,63.10
2017-07-02T03:59:54.660Z,63.20
2017-07-02T04:02:20.992Z,62.70
2017-07-02T04:04:47.360Z,62.90
2017-07-02T04:07:13.698Z,63.00
2017-07-02T04:09:40.024Z,62.60
2017-07-02T04:12:06.364Z,62.40
2017-07-02T04:14:32.714Z,62.50
2017-07-02T04:16:59.031Z,62.60
2017-07-02T04:19:26.092Z,62.70
2017-07-02T04:21:52.468Z,62.70
2017-07-02T04:24:18.832Z,63.10
2017-07-02T04:26:45.150Z,63.10
2017-07-02T04:29:11.518Z,62.30
2017-07-02T04:31:37.847Z,62.30
2017-07-02T04:34:04.153Z,61.80
2017-07-02T04:36:30.526Z,61.50
2017-07-02T04:38:57.594Z,61.80
2017-07-02T04:41:23.924Z,61.80
2017-07-02T04:43:50.236Z,62.20
2017-07-02T04:46:16.571Z,61.90
2017-07-02T04:48:42.916Z,61.70
2017-07-02T04:51:09.258Z,62.40
2017-07-02T04:53:35.589Z,62.10
2017-07-02T04:56:01.913Z,61.90
2017-07-02T04:58:28.267Z,62.10
2017-07-02T05:00:54.594Z,62.40
2017-07-02T05:03:20.925Z,62.40
2017-07-02T05:05:47.261Z,62.60
2017-07-02T05:08:13.832Z,61.70
2017-07-02T05:10:40.349Z,61.00
2017-07-02T05:13:06.888Z,60.80
2017-07-02T05:15:33.208Z,60.10
2017-07-02T05:17:59.776Z,60.60
2017-07-02T05:20:27.097Z,61.70
2017-07-02T05:22:53.443Z,61.60
2017-07-02T05:25:19.772Z,61.00
2017-07-02T05:27:46.224Z,60.50
2017-07-02T05:30:13.263Z,60.60
2017-07-02T05:32:39.666Z,60.40
2017-07-02T05:35:05.983Z,61.20
2017-07-02T05:37:32.332Z,61.30
2017-07-02T05:39:58.654Z,61.40
2017-07-02T05:42:25.721Z,60.10
2017-07-02T05:44:52.028Z,60.10
2017-07-02T05:47:19.093Z,60.50
2017-07-02T05:49:45.414Z,60.00
2017-07-02T05:52:12.505Z,60.50
2017-07-02T05:54:38.853Z,60.40
2017-07-02T05:57:05.183Z,61.40
2017-07-02T05:59:31.488Z,60.90
2017-07-02T06:01:57.842Z,61.10
2017-07-02T06:04:24.382Z,61.40
2017-07-02T06:06:50.919Z,60.80
2017-07-02T06:09:17.467Z,60.00
2017-07-02T06:11:43.998Z,60.10
2017-07-02T06:14:10.541Z,60.20
2017-07-02T06:16:37.159Z,60.10
2017-07-02T06:19:03.477Z,59.60
2017-07-02T06:21:30.042Z,59.50
2017-07-02T06:23:56.596Z,58.20
2017-07-02T06:26:23.168Z,58.90
2017-07-02T06:28:49.715Z,58.10
2017-07-02T06:31:16.331Z,57.60
2017-07-02T06:33:42.857Z,58.50
2017-07-02T06:36:09.406Z,58.00
2017-07-02T06:38:35.964Z,57.70
2017-07-02T06:41:02.501Z,56.80
2017-07-02T06:43:29.008Z,57.80
2017-07-02T06:45:55.571Z,57.60
2017-07-02T06:48:22.052Z,57.60
2017-07-02T06:50:48.629Z,56.60
2017-07-02T06:53:15.225Z,56.90
2017-07-02T06:55:41.772Z,56.70
2017-07-02T06:58:08.304Z,57.70
2017-07-02T07:00:34.884Z,57.20
2017-07-02T07:03:01.463Z,57.20
2017-07-02T07:05:28.033Z,57.60
2017-07-02T07:07:54.569Z,57.70
2017-07-02T07:10:21.136Z,57.80
2017-07-02T07:12:47.665Z,57.40
2017-07-02T07:15:14.958Z,56.60
2017-07-02T07:17:41.471Z,56.60
2017-07-02T07:20:08.039Z,57.30
2017-07-02T07:22:34.653Z,57.20
2017-07-02T07:25:01.221Z,56.60
2017-07-02T07:27:27.797Z,56.90
2017-07-02T07:29:54.390Z,57.60
2017-07-02T07:32:20.904Z,57.80
2017-07-02T07:34:47.565Z,57.30
2017-07-02T07:37:14.108Z,56.50
2017-07-02T07:39:40.556Z,56.60
2017-07-02T07:42:13.873Z,56.90
2017-07-02T07:44:40.224Z,57.00
2017-07-02T07:47:06.575Z,57.10
2017-07-02T07:49:32.917Z,57.60
2017-07-02T07:51:59.269Z,58.00
2017-07-02T07:54:25.712Z,58.30
2017-07-02T07:56:52.136Z,57.90
2017-07-02T07:59:18.492Z,57.40
2017-07-02T08:01:44.876Z,56.90
2017-07-02T08:04:11.191Z,56.30
2017-07-02T08:06:37.525Z,56.40
2017-07-02T08:09:03.876Z,56.50
2017-07-02T08:11:30.211Z,56.10
2017-07-02T08:13:56.556Z,56.20
2017-07-02T08:16:22.890Z,56.40
2017-07-02T08:18:49.235Z,55.60
2017-07-02T08:21:16.284Z,56.20
2017-07-02T08:23:43.353Z,56.70
2017-07-02T08:26:09.714Z,56.70
2017-07-02T08:28:36.073Z,55.20
2017-07-02T08:31:02.407Z,55.40
2017-07-02T08:33:28.992Z,55.70
2017-07-02T08:35:55.614Z,54.70
2017-07-02T08:38:22.145Z,55.20
2017-07-02T08:40:48.680Z,56.00
2017-07-02T08:43:15.202Z,55.60
2017-07-02T08:45:41.793Z,55.60
2017-07-02T08:48:08.337Z,56.20
2017-07-02T08:50:34.890Z,56.10
2017-07-02T08:53:01.482Z,56.50
2017-07-02T08:55:28.112Z,55.90
2017-07-02T08:57:54.660Z,55.40
2017-07-02T09:00:21.278Z,55.60
2017-07-02T09:02:47.817Z,56.50
2017-07-02T09:05:14.449Z,56.00
2017-07-02T09:07:40.914Z,55.90
2017-07-02T09:10:07.474Z,56.10
2017-07-02T09:12:34.381Z,56.80
2017-07-02T09:15:01.004Z,56.00
2017-07-02T09:17:27.569Z,56.40
2017-07-02T09:19:54.106Z,56.60
2017-07-02T09:22:20.672Z,57.00
2017-07-02T09:24:47.253Z,56.50
2017-07-02T09:27:13.809Z,57.30
2017-07-02T09:29:40.381Z,56.80
2017-07-02T09:32:07.684Z,57.60
2017-07-02T09:34:34.247Z,57.60
2017-07-02T09:37:00.812Z,57.80
2017-07-02T09:39:27.408Z,57.70
2017-07-02T09:41:53.980Z,56.90
2017-07-02T09:44:20.568Z,57.60
2017-07-02T09:46:47.201Z,57.40
2017-07-02T09:49:13.820Z,57.00
2017-07-02T09:51:40.424Z,58.00
2017-07-02T09:54:06.989Z,58.60
2017-07-02T09:56:33.599Z,58.10
2017-07-02T09:59:00.180Z,58.00
2017-07-02T10:01:27.976Z,58.00
2017-07-02T10:03:54.680Z,56.90
2017-07-02T10:06:21.349Z,57.60
2017-07-02T10:08:48.768Z,58.80
2017-07-02T10:11:15.133Z,58.60
2017-07-02T10:13:41.692Z,59.10
2017-07-02T10:16:08.258Z,59.40
2017-07-02T10:18:34.819Z,60.20
2017-07-02T10:21:01.288Z,60.90
2017-07-02T10:23:27.860Z,61.50
2017-07-02T10:25:54.493Z,61.50
2017-07-02T10:28:21.105Z,62.60
2017-07-02T10:30:47.648Z,63.20
2017-07-02T10:33:14.249Z,62.90
2017-07-02T10:35:40.825Z,63.30
2017-07-02T10:38:07.422Z,62.60
2017-07-02T10:40:33.983Z,63.10
2017-07-02T10:43:00.564Z,63.20
2017-07-02T10:45:27.170Z,63.60
2017-07-02T10:47:53.752Z,63.60
2017-07-02T10:50:20.323Z,64.60
2017-07-02T10:52:46.808Z,64.00
2017-07-02T10:55:13.326Z,64.40
2017-07-02T10:57:39.828Z,63.30
2017-07-02T11:00:06.454Z,62.70
2017-07-02T11:02:33.072Z,63.40
2017-07-02T11:05:01.200Z,61.70
2017-07-02T11:07:27.732Z,62.10
2017-07-02T11:09:54.289Z,61.90
2017-07-02T11:12:20.844Z,61.40
2017-07-02T11:14:47.411Z,62.10
2017-07-02T11:17:13.997Z,62.20
2017-07-02T11:19:40.571Z,62.40
2017-07-02T11:22:07.177Z,61.60
2017-07-02T11:24:33.697Z,61.10
2017-07-02T11:27:00.995Z,61.50
2017-07-02T11:29:27.531Z,61.40
2017-07-02T11:31:54.176Z,62.00
2017-07-02T11:34:20.543Z,61.00
2017-07-02T11:36:47.115Z,60.70
2017-07-02T11:39:13.491Z,62.00
2017-07-02T11:41:40.071Z,61.10
2017-07-02T11:44:06.668Z,61.70
2017-07-02T11:46:33.227Z,61.10
2017-07-02T11:48:59.788Z,61.90
2017-07-02T11:51:26.603Z,60.90
2017-07-02T11:53:52.997Z,61.60
2017-07-02T11:56:19.390Z,61.30
2017-07-02T11:58:46.220Z,61.00
2017-07-02T12:01:12.551Z,61.70
2017-07-02T12:03:39.088Z,61.50
2017-07-02T12:06:05.648Z,61.80
2017-07-02T12:08:32.208Z,62.00
2017-07-02T12:10:58.783Z,61.90
2017-07-02T12:13:25.376Z,61.90
2017-07-02T12:15:52.106Z,62.00
2017-07-02T12:18:18.685Z,62.40
2017-07-02T12:20:45.403Z,62.90
2017-07-02T12:23:12.192Z,63.60
2017-07-02T12:25:38.787Z,62.70
2017-07-02T12:28:05.410Z,63.50
2017-07-02T12:30:32.005Z,64.10
2017-07-02T12:32:58.612Z,64.00
2017-07-02T12:35:25.218Z,64.50
2017-07-02T12:37:51.788Z,62.20
2017-07-02T12:40:18.382Z,62.20
2017-07-02T12:42:44.997Z,62.30
2017-07-02T12:45:11.632Z,61.30
2017-07-02T12:47:38.261Z,61.30
2017-07-02T12:50:04.842Z,62.90
2017-07-02T12:52:31.405Z,61.90
2017-07-02T12:54:57.988Z,62.50
2017-07-02T12:57:24.555Z,61.00
2017-07-02T12:59:51.157Z,60.00
2017-07-02T13:02:17.780Z,60.20
2017-07-02T13:04:44.374Z,59.50
2017-07-02T13:07:10.948Z,59.40
2017-07-02T13:09:37.545Z,59.30
2017-07-02T13:12:04.103Z,60.40
2017-07-02T13:14:30.669Z,61.20
2017-07-02T13:16:57.414Z,59.80
2017-07-02T13:19:24.483Z,60.20
2017-07-02T13:21:51.091Z,59.20
2017-07-02T13:24:17.660Z,57.30
2017-07-02T13:26:44.209Z,59.10
2017-07-02T13:29:10.961Z,57.20
2017-07-02T13:31:38.320Z,56.00
2017-07-02T13:34:05.264Z,56.00
2017-07-02T13:36:31.809Z,57.50
2017-07-02T13:38:58.389Z,56.60
2017-07-02T13:41:24.923Z,57.60
2017-07-02T13:43:51.649Z,55.10
2017-07-02T13:46:18.936Z,55.10
2017-07-02T13:48:45.437Z,55.00
2017-07-02T13:51:12.092Z,54.90
2017-07-02T13:53:38.640Z,53.90
2017-07-02T13:56:05.218Z,53.90
2017-07-02T13:58:31.792Z,55.50
2017-07-02T14:00:58.355Z,55.10
2017-07-02T14:03:25.832Z,52.80
2017-07-02T14:05:52.437Z,53.10
2017-07-02T14:08:19.095Z,52.80
2017-07-02T14:10:45.721Z,52.00
2017-07-02T14:13:13.104Z,52.50
2017-07-02T14:15:39.833Z,52.60
2017-07-02T14:18:06.519Z,52.80
2017-07-02T14:20:33.094Z,53.20
2017-07-02T14:23:00.366Z,53.00
2017-07-02T14:25:26.924Z,53.00
2017-07-02T14:27:53.477Z,51.20
2017-07-02T14:30:20.813Z,53.10
2017-07-02T14:32:48.192Z,53.20
2017-07-02T14:35:14.745Z,53.20
2017-07-02T14:37:42.061Z,53.10
2017-07-02T14:40:08.605Z,52.50
2017-07-02T14:42:35.200Z,53.30
2017-07-02T14:45:01.761Z,50.90
2017-07-02T14:47:28.324Z,50.70
2017-07-02T14:49:54.877Z,51.60
2017-07-02T14:52:21.419Z,51.70
2017-07-02T14:54:47.977Z,51.80
2017-07-02T14:57:14.584Z,52.10
2017-07-02T14:59:41.168Z,53.10
2017-07-02T15:02:07.735Z,51.70
2017-07-02T15:04:34.321Z,49.80
2017-07-02T15:07:00.936Z,51.20
2017-07-02T15:09:27.605Z,50.60
2017-07-02T15:11:54.927Z,49.90
2017-07-02T15:14:21.524Z,49.90
2017-07-02T15:16:48.136Z,50.20
2017-07-02T15:19:15.503Z,49.20
2017-07-02T15:21:42.127Z,49.20
2017-07-02T15:26:50.600Z,47.70
2017-07-02T15:29:17.241Z,48.80
2017-07-02T15:31:43.835Z,48.50
2017-07-02T15:34:10.411Z,49.10
2017-07-02T15:36:36.965Z,49.30
2017-07-02T15:39:03.663Z,50.80
2017-07-02T15:41:30.236Z,51.10
2017-07-02T15:43:56.813Z,49.00
2017-07-02T15:46:23.363Z,49.40
2017-07-02T15:48:49.931Z,47.30
2017-07-02T15:51:16.472Z,48.80
2017-07-02T15:53:43.132Z,48.90
2017-07-02T15:56:10.728Z,48.30
2017-07-02T15:58:37.435Z,49.70
2017-07-02T16:01:04.141Z,49.30
2017-07-02T16:03:30.744Z,49.40
2017-07-02T16:05:57.200Z,49.30
2017-07-02T16:08:23.783Z,49.00
2017-07-02T16:10:50.268Z,50.30
2017-07-02T16:13:16.828Z,50.00
2017-07-02T16:15:43.411Z,47.80
2017-07-02T16:18:09.967Z,48.00
2017-07-02T16:20:36.536Z,48.20
2017-07-02T16:23:03.102Z,46.50
2017-07-02T16:25:29.673Z,46.70
2017-07-02T16:27:56.227Z,45.00
2017-07-02T16:30:22.848Z,47.60
2017-07-02T16:32:49.364Z,44.30
2017-07-02T16:35:15.946Z,44.70
2017-07-02T16:37:42.572Z,45.20
2017-07-02T16:40:09.133Z,45.10
2017-07-02T16:42:36.826Z,46.40
2017-07-02T16:45:06.231Z,44.90
2017-07-02T16:47:32.985Z,45.30
2017-07-02T16:49:59.626Z,46.20
2017-07-02T16:52:26.180Z,46.50
2017-07-02T16:54:52.745Z,45.20
2017-07-02T16:57:26.113Z,44.80
2017-07-02T16:59:52.496Z,45.10
2017-07-02T17:02:18.820Z,43.90
2017-07-02T17:04:45.164Z,44.00
2017-07-02T17:07:11.499Z,43.30
2017-07-02T17:09:37.868Z,45.20
2017-07-02T17:12:04.186Z,43.20
2017-07-02T17:14:30.566Z,43.10
2017-07-02T17:16:57.396Z,42.80
2017-07-02T17:19:23.715Z,42.00
2017-07-02T17:21:50.057Z,41.60
2017-07-02T17:24:17.162Z,41.40
2017-07-02T17:26:44.121Z,41.40
2017-07-02T17:29:10.443Z,42.50
2017-07-02T17:31:36.820Z,42.00
2017-07-02T17:34:03.149Z,42.10
2017-07-02T17:36:29.481Z,41.30
2017-07-02T17:38:56.009Z,40.60
2017-07-02T17:41:22.590Z,40.50
2017-07-02T17:43:49.060Z,43.00
2017-07-02T17:46:15.621Z,42.00
2017-07-02T17:48:42.298Z,42.80
2017-07-02T17:51:09.598Z,43.10
2017-07-02T17:53:43.005Z,42.90
2017-07-02T17:56:09.384Z,41.80
2017-07-02T17:58:35.774Z,43.30
2017-07-02T18:01:02.110Z,42.80
2017-07-02T18:03:28.417Z,42.20
2017-07-02T18:05:54.730Z,41.80
2017-07-02T18:08:21.054Z,42.50
2017-07-02T18:10:47.375Z,43.30
2017-07-02T18:13:13.764Z,43.60
2017-07-02T18:15:40.077Z,42.10
2017-07-02T18:18:06.429Z,42.70
2017-07-02T18:20:32.790Z,42.60
2017-07-02T18:22:59.105Z,43.60
2017-07-02T18:25:25.475Z,43.00
2017-07-02T18:27:51.800Z,43.30
2017-07-02T18:30:18.265Z,44.90
2017-07-02T18:32:44.597Z,45.80
2017-07-02T18:35:10.945Z,45.20
2017-07-02T18:37:37.261Z,44.00
2017-07-02T18:40:03.615Z,45.30
2017-07-02T18:42:29.926Z,43.30
2017-07-02T18:44:56.254Z,44.70
2017-07-02T18:47:22.694Z,45.10
2017-07-02T18:49:49.033Z,45.70
2017-07-02T18:52:15.357Z,45.30
2017-07-02T18:54:41.714Z,45.20
2017-07-02T18:57:08.037Z,44.60
2017-07-02T18:59:34.393Z,45.40
2017-07-02T19:02:00.741Z,45.70
2017-07-02T19:04:27.233Z,46.00
2017-07-02T19:06:54.396Z,47.20
2017-07-02T19:09:20.884Z,47.20
2017-07-02T19:11:48.247Z,48.70
2017-07-02T19:14:15.360Z,48.90
2017-07-02T19:16:41.676Z,48.90
2017-07-02T19:19:08.000Z,48.80
2017-07-02T19:21:34.563Z,49.40
2017-07-02T19:24:01.107Z,48.20
2017-07-02T19:26:27.649Z,49.30
2017-07-02T19:28:54.388Z,50.00
2017-07-02T19:31:20.929Z,48.50
2017-07-02T19:33:47.481Z,47.80
2017-07-02T19:36:14.069Z,48.40
2017-07-02T19:38:40.958Z,48.00
2017-07-02T19:41:07.540Z,47.80
2017-07-02T19:43:34.081Z,48.90
2017-07-02T19:46:00.695Z,46.70
2017-07-02T19:48:27.382Z,48.30
2017-07-02T19:50:54.816Z,49.60
2017-07-02T19:53:21.333Z,49.00
2017-07-02T19:55:47.944Z,48.90
2017-07-02T19:58:14.538Z,50.20
2017-07-02T20:00:41.252Z,48.60
2017-07-02T20:03:07.797Z,49.80
2017-07-02T20:05:34.425Z,49.90
2017-07-02T20:08:00.989Z,49.80
2017-07-02T20:10:27.529Z,50.50
2017-07-02T20:12:54.140Z,50.80
2017-07-02T20:15:20.697Z,49.70
2017-07-02T20:17:47.270Z,50.60
2017-07-02T20:20:13.836Z,50.30
2017-07-02T20:22:40.368Z,50.90
2017-07-02T20:25:06.927Z,49.60
2017-07-02T20:27:33.442Z,50.10
2017-07-02T20:30:00.017Z,51.50
2017-07-02T20:32:27.048Z,51.80
2017-07-02T20:34:53.601Z,52.70
2017-07-02T20:37:20.212Z,53.60
2017-07-02T20:39:46.755Z,52.80
2017-07-02T20:42:13.344Z,53.10
2017-07-02T20:44:39.785Z,54.40
2017-07-02T20:47:06.469Z,54.40
2017-07-02T20:49:33.177Z,54.90
2017-07-02T20:51:59.804Z,54.00
2017-07-02T20:54:26.327Z,55.90
2017-07-02T20:56:52.910Z,55.30
2017-07-02T20:59:20.239Z,55.20
2017-07-02T21:01:46.824Z,55.10
2017-07-02T21:04:13.404Z,54.40
2017-07-02T21:06:39.978Z,54.70
2017-07-02T21:09:06.571Z,54.70
2017-07-02T21:11:33.276Z,54.30
2017-07-02T21:14:01.241Z,54.50
2017-07-02T21:16:27.792Z,54.40
2017-07-02T21:18:54.320Z,54.80
2017-07-02T21:21:20.871Z,54.50
2017-07-02T21:23:47.413Z,55.40
2017-07-02T21:26:13.993Z,55.50
2017-07-02T21:28:41.280Z,58.00
2017-07-02T21:31:07.825Z,57.20
2017-07-02T21:33:34.557Z,57.30
2017-07-02T21:36:01.102Z,55.80
2017-07-02T21:38:27.666Z,56.00
2017-07-02T21:40:54.441Z,56.10
2017-07-02T21:43:20.979Z,56.30
2017-07-02T21:45:47.436Z,56.70
2017-07-02T21:48:13.967Z,57.20
2017-07-02T21:50:40.499Z,56.90
2017-07-02T21:53:07.050Z,57.20
2017-07-02T21:55:34.352Z,55.90
2017-07-02T21:58:00.704Z,55.80
2017-07-02T22:00:27.258Z,55.40
2017-07-02T22:02:53.780Z,56.30
2017-07-02T22:05:21.089Z,52.80
2017-07-02T22:07:47.393Z,52.40
2017-07-02T22:10:13.965Z,53.80
2017-07-02T22:12:40.475Z,53.10
2017-07-02T22:15:06.919Z,54.40
2017-07-02T22:17:33.440Z,52.90
2017-07-02T22:20:00.073Z,53.70
2017-07-02T22:22:26.661Z,55.50
2017-07-02T22:24:53.296Z,55.30
2017-07-02T22:27:19.833Z,53.80
2017-07-02T22:29:46.391Z,54.00
2017-07-02T22:32:12.964Z,53.30
2017-07-02T22:34:39.396Z,54.20
2017-07-02T22:37:06.010Z,54.20
2017-07-02T22:39:32.548Z,53.90
2017-07-02T22:41:59.305Z,54.00
2017-07-02T22:44:25.837Z,53.60
2017-07-02T22:46:52.487Z,53.70
2017-07-02T22:49:19.012Z,53.20
2017-07-02T22:51:45.558Z,54.20
2017-07-02T22:54:12.075Z,53.10
2017-07-02T22:56:38.860Z,53.10
2017-07-02T22:59:05.411Z,51.90
2017-07-02T23:01:31.953Z,52.50
2017-07-02T23:03:58.495Z,52.10
2017-07-02T23:06:25.055Z,52.40
2017-07-02T23:08:51.608Z,55.00
2017-07-02T23:11:18.145Z,53.10
2017-07-02T23:13:44.765Z,54.00
2017-07-02T23:16:12.089Z,52.60
2017-07-02T23:18:38.579Z,52.50
2017-07-02T23:21:05.740Z,53.00
2017-07-02T23:23:33.045Z,54.50
2017-07-02T23:25:59.584Z,54.50
2017-07-02T23:28:26.195Z,54.50
2017-07-02T23:30:52.748Z,54.20
2017-07-02T23:33:20.072Z,53.50
2017-07-02T23:35:46.806Z,53.10
2017-07-02T23:38:13.224Z,54.20
2017-07-02T23:40:39.812Z,55.80
2017-07-02T23:43:07.099Z,55.90
2017-07-02T23:45:34.148Z,56.80
2017-07-02T23:48:00.448Z,56.00
2017-07-02T23:50:26.774Z,57.80
2017-07-02T23:52:53.328Z,56.10
2017-07-02T23:55:20.426Z,56.00
2017-07-02T23:57:46.752Z,57.10
